SWA1729 KTYS-KMCO
Flight info
| Callsign | SWA1729 |
|---|---|
| Flight time | N/A |
| Altitude | 35000 |
| Route | TALLA DAREE Q65 KERLY/N0443F340 WHYYT GRNCH5 |
| Aircraft | B739/M-SDE2E3FGHIRWXY/LB1 |
Departure
| Time | 2026-04-29 18:10 |
|---|---|
| Airport | McGhee Tyson Airport (KTYS) |
Arrival
| Time | N/A |
|---|---|
| Airport | Orlando International Airport (KMCO) |
| Time | Latitude | Longitude | Altitude | Speed | Heading |
|---|---|---|---|---|---|
| 2026-04-29 17:46 | 35.80726 | -83.99110 | 975 ft | 0 kts | 134° |
| 2026-04-29 17:58 | 35.80730 | -83.99116 | 972 ft | 4 kts | 132° |
| 2026-04-29 17:58 | 35.80746 | -83.99142 | 1000 ft | 4 kts | 117° |
| 2026-04-29 17:58 | 35.80755 | -83.99172 | 973 ft | 4 kts | 94° |
| 2026-04-29 17:58 | 35.80753 | -83.99204 | 980 ft | 4 kts | 66° |
| 2026-04-29 17:59 | 35.80741 | -83.99228 | 978 ft | 1 kts | 45° |
| 2026-04-29 17:59 | 35.80740 | -83.99228 | 978 ft | 0 kts | 45° |
| 2026-04-29 18:01 | 35.80741 | -83.99227 | 972 ft | 0 kts | 45° |
| 2026-04-29 18:01 | 35.80746 | -83.99229 | 972 ft | 2 kts | 353° |
| 2026-04-29 18:01 | 35.80765 | -83.99239 | 981 ft | 0 kts | 326° |
| 2026-04-29 18:02 | 35.80765 | -83.99240 | 981 ft | 0 kts | 326° |
| 2026-04-29 18:02 | 35.80788 | -83.99251 | 978 ft | 6 kts | 348° |
| 2026-04-29 18:02 | 35.80826 | -83.99235 | 972 ft | 6 kts | 40° |
| 2026-04-29 18:03 | 35.80856 | -83.99200 | 976 ft | 6 kts | 44° |
| 2026-04-29 18:03 | 35.80886 | -83.99166 | 979 ft | 6 kts | 43° |
| 2026-04-29 18:03 | 35.80914 | -83.99131 | 980 ft | 6 kts | 45° |
| 2026-04-29 18:03 | 35.80944 | -83.99094 | 977 ft | 9 kts | 45° |
| 2026-04-29 18:04 | 35.80996 | -83.99029 | 983 ft | 11 kts | 45° |
| 2026-04-29 18:04 | 35.81048 | -83.98966 | 978 ft | 10 kts | 45° |
| 2026-04-29 18:04 | 35.81097 | -83.98905 | 988 ft | 10 kts | 45° |
| 2026-04-29 18:04 | 35.81146 | -83.98846 | 985 ft | 10 kts | 44° |
| 2026-04-29 18:05 | 35.81203 | -83.98806 | 986 ft | 10 kts | 2° |
| 2026-04-29 18:05 | 35.81262 | -83.98838 | 978 ft | 9 kts | 331° |
| 2026-04-29 18:05 | 35.81322 | -83.98865 | 979 ft | 9 kts | 349° |
| 2026-04-29 18:05 | 35.81384 | -83.98872 | 981 ft | 9 kts | 356° |
| 2026-04-29 18:06 | 35.81444 | -83.98876 | 979 ft | 9 kts | 356° |
| 2026-04-29 18:06 | 35.81506 | -83.98883 | 977 ft | 10 kts | 355° |
| 2026-04-29 18:06 | 35.81584 | -83.98890 | 975 ft | 13 kts | 2° |
| 2026-04-29 18:06 | 35.81672 | -83.98826 | 982 ft | 17 kts | 45° |
| 2026-04-29 18:07 | 35.81756 | -83.98722 | 977 ft | 17 kts | 45° |
| 2026-04-29 18:07 | 35.81837 | -83.98622 | 976 ft | 16 kts | 45° |
| 2026-04-29 18:07 | 35.81916 | -83.98525 | 981 ft | 16 kts | 45° |
| 2026-04-29 18:07 | 35.81992 | -83.98432 | 981 ft | 15 kts | 45° |
| 2026-04-29 18:08 | 35.82065 | -83.98342 | 978 ft | 14 kts | 44° |
| 2026-04-29 18:08 | 35.82124 | -83.98273 | 972 ft | 10 kts | 43° |
| 2026-04-29 18:08 | 35.82175 | -83.98221 | 977 ft | 9 kts | 24° |
| 2026-04-29 18:08 | 35.82232 | -83.98246 | 967 ft | 9 kts | 317° |
| 2026-04-29 18:09 | 35.82251 | -83.98315 | 968 ft | 9 kts | 255° |
| 2026-04-29 18:09 | 35.82224 | -83.98363 | 965 ft | 0 kts | 226° |
| 2026-04-29 18:09 | 35.82209 | -83.98382 | 967 ft | 21 kts | 225° |
| 2026-04-29 18:10 | 35.81922 | -83.98731 | 976 ft | 94 kts | 224° |
| 2026-04-29 18:10 | 35.81309 | -83.99480 | 975 ft | 151 kts | 225° |
| 2026-04-29 18:10 | 35.80441 | -84.00517 | 1055 ft | 190 kts | 225° |
| 2026-04-29 18:10 | 35.79455 | -84.01667 | 1665 ft | 199 kts | 224° |
| 2026-04-29 18:11 | 35.78429 | -84.02907 | 2168 ft | 215 kts | 227° |
| 2026-04-29 18:11 | 35.77386 | -84.04275 | 2768 ft | 222 kts | 230° |
| 2026-04-29 18:11 | 35.76362 | -84.05713 | 3363 ft | 224 kts | 229° |
| 2026-04-29 18:11 | 35.75090 | -84.06794 | 3949 ft | 235 kts | 203° |
| 2026-04-29 18:12 | 35.73416 | -84.06829 | 4512 ft | 250 kts | 176° |
| 2026-04-29 18:12 | 35.71664 | -84.06474 | 4903 ft | 267 kts | 176° |
| 2026-04-29 18:12 | 35.69783 | -84.06083 | 5414 ft | 278 kts | 175° |
| 2026-04-29 18:12 | 35.67863 | -84.05683 | 6235 ft | 280 kts | 176° |
| 2026-04-29 18:13 | 35.65928 | -84.05286 | 7041 ft | 283 kts | 176° |
| 2026-04-29 18:13 | 35.63967 | -84.04893 | 7800 ft | 288 kts | 176° |
| 2026-04-29 18:13 | 35.61971 | -84.04500 | 8547 ft | 292 kts | 176° |
| 2026-04-29 18:13 | 35.59944 | -84.04106 | 9306 ft | 296 kts | 176° |
| 2026-04-29 18:14 | 35.57895 | -84.03712 | 10096 ft | 300 kts | 176° |
| 2026-04-29 18:14 | 35.55789 | -84.03315 | 10504 ft | 318 kts | 176° |
| 2026-04-29 18:14 | 35.53516 | -84.02892 | 10701 ft | 341 kts | 176° |
| 2026-04-29 18:14 | 35.51153 | -84.02449 | 11139 ft | 353 kts | 175° |
| 2026-04-29 18:15 | 35.48695 | -84.01985 | 11778 ft | 359 kts | 175° |
| 2026-04-29 18:15 | 35.46201 | -84.01514 | 12415 ft | 365 kts | 175° |
| 2026-04-29 18:15 | 35.43671 | -84.01036 | 13038 ft | 370 kts | 176° |
| 2026-04-29 18:15 | 35.41100 | -84.00552 | 13630 ft | 375 kts | 176° |
| 2026-04-29 18:16 | 35.38517 | -84.00067 | 14290 ft | 377 kts | 176° |
| 2026-04-29 18:16 | 35.35906 | -83.99577 | 14901 ft | 382 kts | 176° |
| 2026-04-29 18:16 | 35.33258 | -83.99080 | 15468 ft | 386 kts | 177° |
| 2026-04-29 18:16 | 35.30602 | -83.98581 | 16123 ft | 387 kts | 178° |
| 2026-04-29 18:17 | 35.27960 | -83.98084 | 16635 ft | 393 kts | 178° |
| 2026-04-29 18:17 | 35.25248 | -83.97574 | 17260 ft | 395 kts | 178° |
| 2026-04-29 18:17 | 35.22512 | -83.97065 | 17838 ft | 398 kts | 178° |
| 2026-04-29 18:17 | 35.19767 | -83.96550 | 18380 ft | 403 kts | 179° |
| 2026-04-29 18:18 | 35.16977 | -83.96034 | 18846 ft | 406 kts | 179° |
| 2026-04-29 18:18 | 35.14185 | -83.95515 | 19406 ft | 406 kts | 179° |
| 2026-04-29 18:18 | 35.11388 | -83.94997 | 19989 ft | 408 kts | 179° |
| 2026-04-29 18:18 | 35.08575 | -83.94476 | 20549 ft | 409 kts | 179° |
| 2026-04-29 18:19 | 35.05744 | -83.93953 | 21069 ft | 412 kts | 179° |
| 2026-04-29 18:19 | 35.02897 | -83.93426 | 21621 ft | 414 kts | 179° |
| 2026-04-29 18:19 | 35.00044 | -83.92895 | 22184 ft | 415 kts | 179° |
| 2026-04-29 18:19 | 34.97180 | -83.92365 | 22676 ft | 418 kts | 179° |
| 2026-04-29 18:20 | 34.94282 | -83.91829 | 23216 ft | 420 kts | 179° |
| 2026-04-29 18:20 | 34.91428 | -83.91300 | 23727 ft | 422 kts | 179° |
| 2026-04-29 18:20 | 34.88511 | -83.90760 | 24118 ft | 425 kts | 179° |
| 2026-04-29 18:20 | 34.85572 | -83.90217 | 24531 ft | 428 kts | 179° |
| 2026-04-29 18:21 | 34.82621 | -83.89673 | 24887 ft | 431 kts | 179° |
| 2026-04-29 18:21 | 34.79640 | -83.89123 | 25295 ft | 433 kts | 179° |
| 2026-04-29 18:21 | 34.76653 | -83.88572 | 25689 ft | 436 kts | 179° |
| 2026-04-29 18:21 | 34.73638 | -83.88015 | 26070 ft | 439 kts | 179° |
| 2026-04-29 18:22 | 34.70613 | -83.87469 | 26438 ft | 441 kts | 179° |
| 2026-04-29 18:22 | 34.67543 | -83.86902 | 26403 ft | 450 kts | 179° |
| 2026-04-29 18:22 | 34.64452 | -83.86299 | 26346 ft | 450 kts | 175° |
| 2026-04-29 18:22 | 34.61443 | -83.85381 | 26337 ft | 450 kts | 170° |
| 2026-04-29 18:23 | 34.58517 | -83.83944 | 26322 ft | 458 kts | 161° |
| 2026-04-29 18:23 | 34.55666 | -83.82182 | 26308 ft | 462 kts | 159° |
| 2026-04-29 18:23 | 34.52825 | -83.80343 | 26323 ft | 463 kts | 158° |
| 2026-04-29 18:23 | 34.49976 | -83.78498 | 26317 ft | 464 kts | 159° |
| 2026-04-29 18:24 | 34.47137 | -83.76688 | 26063 ft | 457 kts | 159° |
| 2026-04-29 18:24 | 34.44337 | -83.74936 | 25754 ft | 448 kts | 159° |
| 2026-04-29 18:24 | 34.41612 | -83.73128 | 25447 ft | 442 kts | 156° |
| 2026-04-29 18:24 | 34.39012 | -83.71301 | 25149 ft | 435 kts | 156° |
| 2026-04-29 18:25 | 34.36421 | -83.69454 | 24845 ft | 428 kts | 156° |
| 2026-04-29 18:25 | 34.33882 | -83.67629 | 24542 ft | 422 kts | 156° |
| 2026-04-29 18:25 | 34.31568 | -83.65995 | 24259 ft | 413 kts | 161° |
| 2026-04-29 18:25 | 34.28928 | -83.64940 | 23900 ft | 389 kts | 181° |
| 2026-04-29 18:26 | 34.26320 | -83.65001 | 23610 ft | 364 kts | 201° |
| 2026-04-29 18:26 | 34.24050 | -83.66086 | 23272 ft | 340 kts | 222° |
| 2026-04-29 18:26 | 34.22267 | -83.67873 | 22942 ft | 330 kts | 231° |
| 2026-04-29 18:26 | 34.20635 | -83.69858 | 22371 ft | 335 kts | 233° |
| 2026-04-29 18:27 | 34.19014 | -83.71916 | 21876 ft | 338 kts | 233° |
| 2026-04-29 18:27 | 34.17397 | -83.73988 | 21347 ft | 339 kts | 234° |
| 2026-04-29 18:27 | 34.15782 | -83.76066 | 20828 ft | 339 kts | 234° |
| 2026-04-29 18:27 | 34.14204 | -83.78176 | 20316 ft | 338 kts | 236° |
| 2026-04-29 18:28 | 34.12684 | -83.80330 | 19813 ft | 336 kts | 238° |
| 2026-04-29 18:28 | 34.11307 | -83.82558 | 19328 ft | 334 kts | 241° |
| 2026-04-29 18:28 | 34.09965 | -83.84853 | 18825 ft | 334 kts | 241° |
| 2026-04-29 18:28 | 34.08621 | -83.87140 | 18349 ft | 334 kts | 241° |
| 2026-04-29 18:29 | 34.07271 | -83.89425 | 17820 ft | 333 kts | 241° |
| 2026-04-29 18:29 | 34.06372 | -83.90912 | 17428 ft | 330 kts | 237° |
| 2026-04-29 18:29 | 34.03886 | -83.93138 | 16701 ft | 343 kts | 208° |
| 2026-04-29 18:29 | 34.01518 | -83.93679 | 16174 ft | 354 kts | 186° |
| 2026-04-29 18:30 | 33.99058 | -83.93389 | 15681 ft | 354 kts | 178° |
| 2026-04-29 18:30 | 33.97447 | -83.93105 | 15340 ft | 351 kts | 179° |
| 2026-04-29 18:30 | 33.95047 | -83.92737 | 14826 ft | 345 kts | 180° |
| 2026-04-29 18:30 | 33.92678 | -83.92442 | 14341 ft | 340 kts | 180° |
| 2026-04-29 18:31 | 33.89569 | -83.92100 | 13695 ft | 336 kts | 181° |
| 2026-04-29 18:31 | 33.87248 | -83.91857 | 13151 ft | 333 kts | 181° |
| 2026-04-29 18:31 | 33.85696 | -83.91697 | 12788 ft | 331 kts | 181° |
| 2026-04-29 18:31 | 33.83443 | -83.91457 | 12271 ft | 328 kts | 180° |
| 2026-04-29 18:32 | 33.81177 | -83.91201 | 11751 ft | 326 kts | 180° |
| 2026-04-29 18:32 | 33.76700 | -83.90685 | 10724 ft | 320 kts | 180° |
| 2026-04-29 18:32 | 33.74483 | -83.90519 | 10155 ft | 315 kts | 190° |
| 2026-04-29 18:33 | 33.72434 | -83.91192 | 9571 ft | 301 kts | 212° |
| 2026-04-29 18:33 | 33.70619 | -83.92399 | 8971 ft | 297 kts | 216° |
| 2026-04-29 18:33 | 33.68861 | -83.93686 | 8366 ft | 296 kts | 217° |
| 2026-04-29 18:33 | 33.67259 | -83.95176 | 7767 ft | 288 kts | 231° |
| 2026-04-29 18:34 | 33.65972 | -83.96988 | 7205 ft | 285 kts | 235° |
| 2026-04-29 18:34 | 33.65152 | -83.98225 | 6830 ft | 284 kts | 236° |
| 2026-04-29 18:34 | 33.63546 | -84.00694 | 6187 ft | 279 kts | 236° |
| 2026-04-29 18:34 | 33.62379 | -84.02509 | 5994 ft | 271 kts | 238° |
| 2026-04-29 18:35 | 33.61673 | -84.04436 | 5686 ft | 264 kts | 263° |
| 2026-04-29 18:35 | 33.61613 | -84.06312 | 5437 ft | 262 kts | 272° |
| 2026-04-29 18:35 | 33.61691 | -84.08496 | 5170 ft | 260 kts | 276° |
| 2026-04-29 18:35 | 33.61974 | -84.10622 | 4868 ft | 263 kts | 285° |
| 2026-04-29 18:36 | 33.62576 | -84.12717 | 4449 ft | 267 kts | 289° |
| 2026-04-29 18:36 | 33.63242 | -84.14792 | 4020 ft | 265 kts | 289° |
| 2026-04-29 18:36 | 33.63896 | -84.16828 | 3597 ft | 255 kts | 288° |
| 2026-04-29 18:36 | 33.64278 | -84.18813 | 3180 ft | 236 kts | 276° |
| 2026-04-29 18:37 | 33.64379 | -84.20707 | 2920 ft | 216 kts | 271° |
| 2026-04-29 18:37 | 33.64391 | -84.22398 | 2877 ft | 190 kts | 270° |
| 2026-04-29 18:37 | 33.64400 | -84.23918 | 2834 ft | 178 kts | 272° |
| 2026-04-29 18:37 | 33.64414 | -84.25434 | 2872 ft | 192 kts | 270° |
| 2026-04-29 18:38 | 33.64430 | -84.27057 | 2876 ft | 191 kts | 270° |
| 2026-04-29 18:38 | 33.64465 | -84.28585 | 2777 ft | 177 kts | 274° |
| 2026-04-29 18:38 | 33.64575 | -84.30054 | 2662 ft | 177 kts | 273° |
| 2026-04-29 18:38 | 33.64664 | -84.31488 | 2486 ft | 167 kts | 272° |
| 2026-04-29 18:39 | 33.64708 | -84.32857 | 2188 ft | 161 kts | 266° |
| 2026-04-29 18:39 | 33.64661 | -84.34172 | 2076 ft | 157 kts | 267° |
| 2026-04-29 18:39 | 33.64675 | -84.35477 | 1881 ft | 156 kts | 270° |
| 2026-04-29 18:39 | 33.64704 | -84.36779 | 1645 ft | 151 kts | 268° |
| 2026-04-29 18:40 | 33.64674 | -84.38011 | 1469 ft | 151 kts | 268° |
| 2026-04-29 18:40 | 33.64685 | -84.39290 | 1264 ft | 153 kts | 266° |
| 2026-04-29 18:40 | 33.64678 | -84.40534 | 1070 ft | 147 kts | 268° |
| 2026-04-29 18:40 | 33.64683 | -84.41815 | 1008 ft | 157 kts | 265° |
| 2026-04-29 18:41 | 33.64612 | -84.43246 | 1007 ft | 7 kts | 238° |
| 2026-04-29 18:41 | 33.64586 | -84.43297 | 1007 ft | 7 kts | 239° |
| 2026-04-29 18:42 | 33.64561 | -84.43347 | 1006 ft | 7 kts | 239° |
| 2026-04-29 18:42 | 33.64516 | -84.43408 | 1006 ft | 13 kts | 213° |
| 2026-04-29 18:42 | 33.64431 | -84.43429 | 1005 ft | 13 kts | 187° |
| 2026-04-29 18:42 | 33.64391 | -84.43436 | 1005 ft | 0 kts | 188° |
| 2026-04-29 18:43 | 33.64386 | -84.43437 | 1005 ft | 2 kts | 188° |